sensor_id;sensor_type;location;lat;lon;timestamp;P1;durP1;ratioP1;P2;durP2;ratioP2
33108;SDS011;19481;51.118;6.940;2022-12-18T00:04:14;8.82;;;5.13;;
33108;SDS011;19481;51.118;6.940;2022-12-18T00:09:19;8.35;;;5.28;;
33108;SDS011;19481;51.118;6.940;2022-12-18T00:14:21;6.93;;;4.68;;
33108;SDS011;19481;51.118;6.940;2022-12-18T00:19:24;8.95;;;5.55;;
33108;SDS011;19481;51.118;6.940;2022-12-18T00:24:25;7.88;;;5.10;;
33108;SDS011;19481;51.118;6.940;2022-12-18T00:29:27;6.28;;;4.50;;
33108;SDS011;19481;51.118;6.940;2022-12-18T00:34:30;8.60;;;5.03;;
33108;SDS011;19481;51.118;6.940;2022-12-18T00:39:32;7.05;;;4.45;;
33108;SDS011;19481;51.118;6.940;2022-12-18T00:44:33;8.35;;;4.90;;
33108;SDS011;19481;51.118;6.940;2022-12-18T00:49:36;9.73;;;4.35;;
33108;SDS011;19481;51.118;6.940;2022-12-18T00:54:38;6.75;;;4.78;;
33108;SDS011;19481;51.118;6.940;2022-12-18T00:59:39;6.93;;;4.80;;
33108;SDS011;19481;51.118;6.940;2022-12-18T01:04:42;6.47;;;4.80;;
33108;SDS011;19481;51.118;6.940;2022-12-18T01:09:44;6.15;;;4.72;;
33108;SDS011;19481;51.118;6.940;2022-12-18T01:14:45;9.05;;;4.55;;
33108;SDS011;19481;51.118;6.940;2022-12-18T01:19:48;7.30;;;5.22;;
33108;SDS011;19481;51.118;6.940;2022-12-18T01:24:50;6.40;;;4.57;;
33108;SDS011;19481;51.118;6.940;2022-12-18T01:29:52;9.70;;;5.07;;
33108;SDS011;19481;51.118;6.940;2022-12-18T01:34:54;7.03;;;4.80;;
33108;SDS011;19481;51.118;6.940;2022-12-18T01:39:56;9.35;;;4.97;;
33108;SDS011;19481;51.118;6.940;2022-12-18T01:45:00;9.27;;;5.00;;
33108;SDS011;19481;51.118;6.940;2022-12-18T01:50:07;7.15;;;4.90;;
33108;SDS011;19481;51.118;6.940;2022-12-18T01:55:11;8.02;;;5.03;;
33108;SDS011;19481;51.118;6.940;2022-12-18T02:00:16;7.95;;;5.03;;
33108;SDS011;19481;51.118;6.940;2022-12-18T02:05:22;9.45;;;5.03;;
33108;SDS011;19481;51.118;6.940;2022-12-18T02:10:30;10.23;;;4.90;;
33108;SDS011;19481;51.118;6.940;2022-12-18T02:15:36;7.32;;;4.80;;
33108;SDS011;19481;51.118;6.940;2022-12-18T02:20:44;5.55;;;4.57;;
33108;SDS011;19481;51.118;6.940;2022-12-18T02:31:14;6.15;;;4.22;;
33108;SDS011;19481;51.118;6.940;2022-12-18T02:36:23;7.82;;;4.15;;
33108;SDS011;19481;51.118;6.940;2022-12-18T02:41:29;8.20;;;5.03;;
33108;SDS011;19481;51.118;6.940;2022-12-18T02:46:33;8.15;;;4.75;;
33108;SDS011;19481;51.118;6.940;2022-12-18T02:51:39;6.72;;;4.22;;
33108;SDS011;19481;51.118;6.940;2022-12-18T02:56:50;7.47;;;4.63;;
33108;SDS011;19481;51.118;6.940;2022-12-18T03:01:55;8.75;;;4.63;;
33108;SDS011;19481;51.118;6.940;2022-12-18T03:07:03;12.18;;;4.50;;
33108;SDS011;19481;51.118;6.940;2022-12-18T03:12:23;6.57;;;3.97;;
33108;SDS011;19481;51.118;6.940;2022-12-18T03:17:31;6.85;;;4.57;;
33108;SDS011;19481;51.118;6.940;2022-12-18T03:22:34;8.00;;;4.00;;
33108;SDS011;19481;51.118;6.940;2022-12-18T03:27:40;5.97;;;4.32;;
33108;SDS011;19481;51.118;6.940;2022-12-18T03:32:47;8.10;;;4.60;;
33108;SDS011;19481;51.118;6.940;2022-12-18T03:37:51;6.45;;;4.18;;
33108;SDS011;19481;51.118;6.940;2022-12-18T03:42:55;6.00;;;4.28;;
33108;SDS011;19481;51.118;6.940;2022-12-18T03:48:04;5.78;;;4.38;;
33108;SDS011;19481;51.118;6.940;2022-12-18T03:53:13;6.77;;;4.70;;
33108;SDS011;19481;51.118;6.940;2022-12-18T03:58:25;6.93;;;4.70;;
33108;SDS011;19481;51.118;6.940;2022-12-18T04:03:29;6.03;;;4.35;;
33108;SDS011;19481;51.118;6.940;2022-12-18T04:08:33;6.65;;;4.18;;
33108;SDS011;19481;51.118;6.940;2022-12-18T04:13:37;5.30;;;4.15;;
33108;SDS011;19481;51.118;6.940;2022-12-18T04:18:40;7.70;;;4.82;;
33108;SDS011;19481;51.118;6.940;2022-12-18T04:23:44;6.32;;;4.28;;
33108;SDS011;19481;51.118;6.940;2022-12-18T04:28:49;5.97;;;4.07;;
33108;SDS011;19481;51.118;6.940;2022-12-18T04:33:51;7.03;;;4.57;;
33108;SDS011;19481;51.118;6.940;2022-12-18T04:38:53;6.63;;;4.10;;
33108;SDS011;19481;51.118;6.940;2022-12-18T04:43:55;7.63;;;4.43;;
33108;SDS011;19481;51.118;6.940;2022-12-18T04:48:57;7.85;;;5.00;;
33108;SDS011;19481;51.118;6.940;2022-12-18T04:53:59;7.07;;;4.97;;
33108;SDS011;19481;51.118;6.940;2022-12-18T04:59:02;5.97;;;4.80;;
33108;SDS011;19481;51.118;6.940;2022-12-18T05:04:03;6.73;;;4.60;;
33108;SDS011;19481;51.118;6.940;2022-12-18T05:09:05;8.63;;;4.83;;
33108;SDS011;19481;51.118;6.940;2022-12-18T05:14:08;8.88;;;5.00;;
33108;SDS011;19481;51.118;6.940;2022-12-18T05:19:10;7.97;;;4.80;;
33108;SDS011;19481;51.118;6.940;2022-12-18T05:24:11;11.13;;;5.77;;
33108;SDS011;19481;51.118;6.940;2022-12-18T05:29:14;8.17;;;4.57;;
33108;SDS011;19481;51.118;6.940;2022-12-18T05:34:16;5.73;;;4.87;;
33108;SDS011;19481;51.118;6.940;2022-12-18T05:39:18;6.80;;;4.60;;
33108;SDS011;19481;51.118;6.940;2022-12-18T05:44:21;7.97;;;4.63;;
33108;SDS011;19481;51.118;6.940;2022-12-18T05:49:22;6.97;;;4.30;;
33108;SDS011;19481;51.118;6.940;2022-12-18T05:54:26;9.77;;;4.17;;
33108;SDS011;19481;51.118;6.940;2022-12-18T05:59:29;7.53;;;4.60;;
33108;SDS011;19481;51.118;6.940;2022-12-18T06:04:30;8.17;;;4.60;;
33108;SDS011;19481;51.118;6.940;2022-12-18T06:09:32;8.40;;;4.73;;
33108;SDS011;19481;51.118;6.940;2022-12-18T06:14:35;5.73;;;4.20;;
33108;SDS011;19481;51.118;6.940;2022-12-18T06:19:37;7.40;;;4.37;;
33108;SDS011;19481;51.118;6.940;2022-12-18T06:24:39;6.73;;;4.50;;
33108;SDS011;19481;51.118;6.940;2022-12-18T06:29:42;8.97;;;4.73;;
33108;SDS011;19481;51.118;6.940;2022-12-18T06:34:43;7.23;;;4.83;;
33108;SDS011;19481;51.118;6.940;2022-12-18T06:39:45;8.90;;;5.57;;
33108;SDS011;19481;51.118;6.940;2022-12-18T06:44:48;10.37;;;5.40;;
33108;SDS011;19481;51.118;6.940;2022-12-18T06:49:49;7.23;;;5.50;;
33108;SDS011;19481;51.118;6.940;2022-12-18T06:54:51;14.67;;;5.70;;
33108;SDS011;19481;51.118;6.940;2022-12-18T06:59:54;7.77;;;4.93;;
33108;SDS011;19481;51.118;6.940;2022-12-18T07:04:55;7.37;;;5.37;;
33108;SDS011;19481;51.118;6.940;2022-12-18T07:09:57;6.60;;;4.20;;
33108;SDS011;19481;51.118;6.940;2022-12-18T07:15:00;7.80;;;4.57;;
33108;SDS011;19481;51.118;6.940;2022-12-18T07:20:02;8.93;;;4.97;;
33108;SDS011;19481;51.118;6.940;2022-12-18T07:25:04;10.23;;;4.70;;
33108;SDS011;19481;51.118;6.940;2022-12-18T07:30:09;7.13;;;5.50;;
33108;SDS011;19481;51.118;6.940;2022-12-18T07:35:11;10.53;;;5.80;;
33108;SDS011;19481;51.118;6.940;2022-12-18T07:40:13;9.27;;;4.80;;
33108;SDS011;19481;51.118;6.940;2022-12-18T07:45:16;6.10;;;4.77;;
33108;SDS011;19481;51.118;6.940;2022-12-18T07:50:18;10.10;;;5.60;;
33108;SDS011;19481;51.118;6.940;2022-12-18T07:55:19;9.03;;;5.67;;
33108;SDS011;19481;51.118;6.940;2022-12-18T08:00:22;8.63;;;5.63;;
33108;SDS011;19481;51.118;6.940;2022-12-18T08:05:24;11.73;;;6.43;;
33108;SDS011;19481;51.118;6.940;2022-12-18T08:10:26;10.40;;;6.57;;
33108;SDS011;19481;51.118;6.940;2022-12-18T08:15:29;8.17;;;5.23;;
33108;SDS011;19481;51.118;6.940;2022-12-18T08:20:30;12.27;;;5.87;;
33108;SDS011;19481;51.118;6.940;2022-12-18T08:25:35;6.90;;;5.67;;
33108;SDS011;19481;51.118;6.940;2022-12-18T08:35:42;6.47;;;4.77;;
33108;SDS011;19481;51.118;6.940;2022-12-18T08:40:44;10.63;;;5.73;;
33108;SDS011;19481;51.118;6.940;2022-12-18T08:45:47;12.50;;;6.60;;
33108;SDS011;19481;51.118;6.940;2022-12-18T08:50:53;13.23;;;6.27;;
33108;SDS011;19481;51.118;6.940;2022-12-18T08:55:56;7.25;;;4.07;;
33108;SDS011;19481;51.118;6.940;2022-12-18T09:01:00;5.82;;;4.95;;
33108;SDS011;19481;51.118;6.940;2022-12-18T09:06:02;7.63;;;5.85;;
33108;SDS011;19481;51.118;6.940;2022-12-18T09:11:09;7.40;;;5.13;;
33108;SDS011;19481;51.118;6.940;2022-12-18T09:16:15;8.93;;;5.30;;
33108;SDS011;19481;51.118;6.940;2022-12-18T09:21:18;9.10;;;5.65;;
33108;SDS011;19481;51.118;6.940;2022-12-18T09:26:20;12.10;;;6.28;;
33108;SDS011;19481;51.118;6.940;2022-12-18T09:31:24;12.05;;;5.47;;
33108;SDS011;19481;51.118;6.940;2022-12-18T09:36:25;9.82;;;5.45;;
33108;SDS011;19481;51.118;6.940;2022-12-18T09:41:33;11.00;;;6.45;;
33108;SDS011;19481;51.118;6.940;2022-12-18T09:46:42;10.38;;;6.15;;
33108;SDS011;19481;51.118;6.940;2022-12-18T09:51:49;8.75;;;4.82;;
33108;SDS011;19481;51.118;6.940;2022-12-18T09:56:54;10.07;;;5.60;;
33108;SDS011;19481;51.118;6.940;2022-12-18T10:01:57;8.73;;;5.18;;
33108;SDS011;19481;51.118;6.940;2022-12-18T10:07:00;8.93;;;5.45;;
33108;SDS011;19481;51.118;6.940;2022-12-18T10:12:12;8.15;;;5.57;;
33108;SDS011;19481;51.118;6.940;2022-12-18T10:22:26;9.07;;;4.97;;
33108;SDS011;19481;51.118;6.940;2022-12-18T10:27:39;10.05;;;5.18;;
33108;SDS011;19481;51.118;6.940;2022-12-18T10:32:42;8.13;;;4.85;;
33108;SDS011;19481;51.118;6.940;2022-12-18T10:38:04;7.90;;;5.30;;
33108;SDS011;19481;51.118;6.940;2022-12-18T10:43:11;7.55;;;4.97;;
33108;SDS011;19481;51.118;6.940;2022-12-18T10:48:19;8.77;;;5.00;;
33108;SDS011;19481;51.118;6.940;2022-12-18T10:53:23;8.55;;;5.72;;
33108;SDS011;19481;51.118;6.940;2022-12-18T10:58:27;8.75;;;5.78;;
33108;SDS011;19481;51.118;6.940;2022-12-18T11:03:33;9.60;;;6.00;;
33108;SDS011;19481;51.118;6.940;2022-12-18T11:08:36;7.95;;;4.93;;
33108;SDS011;19481;51.118;6.940;2022-12-18T11:13:38;10.75;;;4.95;;
33108;SDS011;19481;51.118;6.940;2022-12-18T11:18:42;7.50;;;4.95;;
33108;SDS011;19481;51.118;6.940;2022-12-18T11:23:46;10.10;;;5.38;;
33108;SDS011;19481;51.118;6.940;2022-12-18T11:28:49;11.57;;;5.43;;
33108;SDS011;19481;51.118;6.940;2022-12-18T11:33:58;8.15;;;5.35;;
33108;SDS011;19481;51.118;6.940;2022-12-18T11:39:03;8.43;;;5.47;;
33108;SDS011;19481;51.118;6.940;2022-12-18T11:44:13;6.75;;;4.32;;
33108;SDS011;19481;51.118;6.940;2022-12-18T11:49:21;9.27;;;6.25;;
33108;SDS011;19481;51.118;6.940;2022-12-18T11:54:26;7.85;;;5.80;;
33108;SDS011;19481;51.118;6.940;2022-12-18T11:59:30;10.30;;;6.25;;
33108;SDS011;19481;51.118;6.940;2022-12-18T12:04:45;7.82;;;5.20;;
33108;SDS011;19481;51.118;6.940;2022-12-18T12:10:07;9.65;;;6.20;;
33108;SDS011;19481;51.118;6.940;2022-12-18T12:15:18;12.48;;;5.80;;
33108;SDS011;19481;51.118;6.940;2022-12-18T12:20:30;10.05;;;6.65;;
33108;SDS011;19481;51.118;6.940;2022-12-18T12:25:44;6.22;;;5.05;;
33108;SDS011;19481;51.118;6.940;2022-12-18T12:30:53;11.30;;;6.70;;
33108;SDS011;19481;51.118;6.940;2022-12-18T12:36:06;11.07;;;6.60;;
33108;SDS011;19481;51.118;6.940;2022-12-18T12:41:14;10.32;;;5.80;;
33108;SDS011;19481;51.118;6.940;2022-12-18T12:46:37;12.32;;;7.07;;
33108;SDS011;19481;51.118;6.940;2022-12-18T12:51:44;13.05;;;6.75;;
33108;SDS011;19481;51.118;6.940;2022-12-18T12:56:50;9.98;;;6.32;;
33108;SDS011;19481;51.118;6.940;2022-12-18T13:01:59;12.75;;;7.95;;
33108;SDS011;19481;51.118;6.940;2022-12-18T13:07:10;14.90;;;7.28;;
33108;SDS011;19481;51.118;6.940;2022-12-18T13:12:16;14.82;;;8.25;;
33108;SDS011;19481;51.118;6.940;2022-12-18T13:17:35;12.82;;;6.85;;
33108;SDS011;19481;51.118;6.940;2022-12-18T13:22:39;14.10;;;8.32;;
33108;SDS011;19481;51.118;6.940;2022-12-18T13:38:42;15.57;;;9.20;;
33108;SDS011;19481;51.118;6.940;2022-12-18T13:43:45;17.15;;;9.38;;
33108;SDS011;19481;51.118;6.940;2022-12-18T13:48:52;24.77;;;10.38;;
33108;SDS011;19481;51.118;6.940;2022-12-18T13:53:58;17.65;;;7.47;;
33108;SDS011;19481;51.118;6.940;2022-12-18T13:59:06;12.82;;;7.07;;
33108;SDS011;19481;51.118;6.940;2022-12-18T14:04:16;14.77;;;8.07;;
33108;SDS011;19481;51.118;6.940;2022-12-18T14:09:23;17.70;;;7.95;;
33108;SDS011;19481;51.118;6.940;2022-12-18T14:14:26;7.40;;;4.88;;
33108;SDS011;19481;51.118;6.940;2022-12-18T14:19:28;17.45;;;9.93;;
33108;SDS011;19481;51.118;6.940;2022-12-18T14:24:31;15.02;;;7.70;;
33108;SDS011;19481;51.118;6.940;2022-12-18T14:29:34;10.77;;;6.60;;
33108;SDS011;19481;51.118;6.940;2022-12-18T14:34:36;14.98;;;7.50;;
33108;SDS011;19481;51.118;6.940;2022-12-18T14:39:39;17.13;;;9.00;;
33108;SDS011;19481;51.118;6.940;2022-12-18T14:44:40;16.73;;;9.13;;
33108;SDS011;19481;51.118;6.940;2022-12-18T14:49:42;16.33;;;9.10;;
33108;SDS011;19481;51.118;6.940;2022-12-18T14:54:46;14.10;;;8.82;;
33108;SDS011;19481;51.118;6.940;2022-12-18T14:59:48;17.88;;;9.48;;
33108;SDS011;19481;51.118;6.940;2022-12-18T15:04:59;11.57;;;6.43;;
33108;SDS011;19481;51.118;6.940;2022-12-18T15:10:08;15.52;;;8.23;;
33108;SDS011;19481;51.118;6.940;2022-12-18T15:20:48;19.85;;;8.48;;
33108;SDS011;19481;51.118;6.940;2022-12-18T15:25:55;12.63;;;8.52;;
33108;SDS011;19481;51.118;6.940;2022-12-18T15:30:59;12.73;;;7.53;;
33108;SDS011;19481;51.118;6.940;2022-12-18T15:36:26;21.38;;;12.98;;
33108;SDS011;19481;51.118;6.940;2022-12-18T15:41:32;17.45;;;8.27;;
33108;SDS011;19481;51.118;6.940;2022-12-18T15:46:35;20.65;;;8.05;;
33108;SDS011;19481;51.118;6.940;2022-12-18T15:51:36;14.75;;;9.35;;
33108;SDS011;19481;51.118;6.940;2022-12-18T15:56:40;18.23;;;10.25;;
33108;SDS011;19481;51.118;6.940;2022-12-18T16:01:59;20.50;;;9.80;;
33108;SDS011;19481;51.118;6.940;2022-12-18T16:07:01;19.98;;;11.10;;
33108;SDS011;19481;51.118;6.940;2022-12-18T16:12:04;20.25;;;10.18;;
33108;SDS011;19481;51.118;6.940;2022-12-18T16:17:09;20.42;;;11.43;;
33108;SDS011;19481;51.118;6.940;2022-12-18T16:22:15;17.83;;;8.68;;
33108;SDS011;19481;51.118;6.940;2022-12-18T16:27:32;18.23;;;10.23;;
33108;SDS011;19481;51.118;6.940;2022-12-18T16:32:34;7.60;;;5.35;;
33108;SDS011;19481;51.118;6.940;2022-12-18T16:37:35;20.58;;;10.60;;
33108;SDS011;19481;51.118;6.940;2022-12-18T16:42:39;17.95;;;7.65;;
33108;SDS011;19481;51.118;6.940;2022-12-18T16:47:44;20.48;;;10.02;;
33108;SDS011;19481;51.118;6.940;2022-12-18T16:52:46;15.55;;;8.43;;
33108;SDS011;19481;51.118;6.940;2022-12-18T16:57:49;24.33;;;11.13;;
33108;SDS011;19481;51.118;6.940;2022-12-18T17:02:51;23.90;;;11.60;;
33108;SDS011;19481;51.118;6.940;2022-12-18T17:07:53;20.80;;;8.95;;
33108;SDS011;19481;51.118;6.940;2022-12-18T17:12:56;17.63;;;9.35;;
33108;SDS011;19481;51.118;6.940;2022-12-18T17:17:59;25.52;;;12.35;;
33108;SDS011;19481;51.118;6.940;2022-12-18T17:23:00;19.25;;;10.80;;
33108;SDS011;19481;51.118;6.940;2022-12-18T17:28:03;21.92;;;11.93;;
33108;SDS011;19481;51.118;6.940;2022-12-18T17:33:05;21.40;;;10.15;;
33108;SDS011;19481;51.118;6.940;2022-12-18T17:38:07;21.45;;;9.13;;
33108;SDS011;19481;51.118;6.940;2022-12-18T17:43:10;22.30;;;11.90;;
33108;SDS011;19481;51.118;6.940;2022-12-18T17:48:12;16.45;;;9.18;;
33108;SDS011;19481;51.118;6.940;2022-12-18T17:53:13;29.88;;;12.57;;
33108;SDS011;19481;51.118;6.940;2022-12-18T17:58:16;19.92;;;11.25;;
33108;SDS011;19481;51.118;6.940;2022-12-18T18:03:18;24.58;;;11.68;;
33108;SDS011;19481;51.118;6.940;2022-12-18T18:08:19;23.00;;;11.85;;
33108;SDS011;19481;51.118;6.940;2022-12-18T18:13:24;24.25;;;11.85;;
33108;SDS011;19481;51.118;6.940;2022-12-18T18:18:43;31.45;;;13.38;;
33108;SDS011;19481;51.118;6.940;2022-12-18T18:23:45;25.13;;;12.32;;
33108;SDS011;19481;51.118;6.940;2022-12-18T18:28:48;18.27;;;7.90;;
33108;SDS011;19481;51.118;6.940;2022-12-18T18:33:53;22.52;;;10.32;;
33108;SDS011;19481;51.118;6.940;2022-12-18T18:38:57;30.25;;;13.02;;
33108;SDS011;19481;51.118;6.940;2022-12-18T18:44:00;26.73;;;14.38;;
33108;SDS011;19481;51.118;6.940;2022-12-18T18:49:02;26.25;;;12.60;;
33108;SDS011;19481;51.118;6.940;2022-12-18T18:54:04;24.20;;;10.95;;
33108;SDS011;19481;51.118;6.940;2022-12-18T18:59:07;21.65;;;11.45;;
33108;SDS011;19481;51.118;6.940;2022-12-18T19:04:09;29.33;;;15.55;;
33108;SDS011;19481;51.118;6.940;2022-12-18T19:09:10;19.73;;;9.70;;
33108;SDS011;19481;51.118;6.940;2022-12-18T19:14:14;22.50;;;11.95;;
33108;SDS011;19481;51.118;6.940;2022-12-18T19:19:16;26.05;;;11.60;;
33108;SDS011;19481;51.118;6.940;2022-12-18T19:24:19;24.70;;;11.60;;
33108;SDS011;19481;51.118;6.940;2022-12-18T19:29:22;27.50;;;13.43;;
33108;SDS011;19481;51.118;6.940;2022-12-18T19:34:24;29.67;;;15.25;;
33108;SDS011;19481;51.118;6.940;2022-12-18T19:39:25;24.17;;;11.25;;
33108;SDS011;19481;51.118;6.940;2022-12-18T19:44:28;28.55;;;12.35;;
33108;SDS011;19481;51.118;6.940;2022-12-18T19:49:30;27.48;;;12.70;;
33108;SDS011;19481;51.118;6.940;2022-12-18T19:54:32;28.00;;;12.82;;
33108;SDS011;19481;51.118;6.940;2022-12-18T19:59:35;30.98;;;13.07;;
33108;SDS011;19481;51.118;6.940;2022-12-18T20:04:36;29.70;;;13.80;;
33108;SDS011;19481;51.118;6.940;2022-12-18T20:09:38;24.67;;;12.27;;
33108;SDS011;19481;51.118;6.940;2022-12-18T20:14:41;21.10;;;10.93;;
33108;SDS011;19481;51.118;6.940;2022-12-18T20:19:43;23.88;;;11.52;;
33108;SDS011;19481;51.118;6.940;2022-12-18T20:24:44;28.38;;;12.50;;
33108;SDS011;19481;51.118;6.940;2022-12-18T20:29:47;24.95;;;12.05;;
33108;SDS011;19481;51.118;6.940;2022-12-18T20:34:50;28.52;;;13.52;;
33108;SDS011;19481;51.118;6.940;2022-12-18T20:39:58;26.38;;;14.18;;
33108;SDS011;19481;51.118;6.940;2022-12-18T20:45:01;25.75;;;12.90;;
33108;SDS011;19481;51.118;6.940;2022-12-18T20:50:02;26.13;;;13.05;;
33108;SDS011;19481;51.118;6.940;2022-12-18T20:55:05;26.80;;;12.30;;
33108;SDS011;19481;51.118;6.940;2022-12-18T21:00:09;28.60;;;13.02;;
33108;SDS011;19481;51.118;6.940;2022-12-18T21:05:11;26.83;;;11.52;;
33108;SDS011;19481;51.118;6.940;2022-12-18T21:10:13;28.67;;;13.13;;
33108;SDS011;19481;51.118;6.940;2022-12-18T21:15:16;28.08;;;14.43;;
33108;SDS011;19481;51.118;6.940;2022-12-18T21:20:18;27.05;;;11.48;;
33108;SDS011;19481;51.118;6.940;2022-12-18T21:25:20;27.48;;;12.80;;
33108;SDS011;19481;51.118;6.940;2022-12-18T21:30:22;26.48;;;13.00;;
33108;SDS011;19481;51.118;6.940;2022-12-18T21:35:24;28.90;;;11.30;;
33108;SDS011;19481;51.118;6.940;2022-12-18T21:40:26;26.13;;;11.50;;
33108;SDS011;19481;51.118;6.940;2022-12-18T21:45:29;31.77;;;11.70;;
33108;SDS011;19481;51.118;6.940;2022-12-18T21:50:30;26.30;;;12.65;;
33108;SDS011;19481;51.118;6.940;2022-12-18T21:55:32;18.90;;;10.02;;
33108;SDS011;19481;51.118;6.940;2022-12-18T22:00:35;27.13;;;12.73;;
33108;SDS011;19481;51.118;6.940;2022-12-18T22:05:36;26.02;;;11.95;;
33108;SDS011;19481;51.118;6.940;2022-12-18T22:10:38;22.83;;;11.27;;
33108;SDS011;19481;51.118;6.940;2022-12-18T22:15:41;26.73;;;12.65;;
33108;SDS011;19481;51.118;6.940;2022-12-18T22:20:43;27.75;;;13.20;;
33108;SDS011;19481;51.118;6.940;2022-12-18T22:25:45;31.52;;;14.45;;
33108;SDS011;19481;51.118;6.940;2022-12-18T22:30:47;27.45;;;13.30;;
33108;SDS011;19481;51.118;6.940;2022-12-18T22:35:49;31.55;;;12.35;;
33108;SDS011;19481;51.118;6.940;2022-12-18T22:40:51;26.27;;;12.98;;
33108;SDS011;19481;51.118;6.940;2022-12-18T22:45:54;25.20;;;12.48;;
33108;SDS011;19481;51.118;6.940;2022-12-18T22:50:55;26.00;;;12.95;;
33108;SDS011;19481;51.118;6.940;2022-12-18T22:55:59;23.80;;;11.40;;
33108;SDS011;19481;51.118;6.940;2022-12-18T23:01:02;26.00;;;11.38;;
33108;SDS011;19481;51.118;6.940;2022-12-18T23:06:04;29.85;;;13.82;;
33108;SDS011;19481;51.118;6.940;2022-12-18T23:11:07;28.45;;;13.45;;
33108;SDS011;19481;51.118;6.940;2022-12-18T23:16:12;22.27;;;10.95;;
33108;SDS011;19481;51.118;6.940;2022-12-18T23:21:15;22.63;;;10.13;;
33108;SDS011;19481;51.118;6.940;2022-12-18T23:26:19;27.70;;;13.70;;
33108;SDS011;19481;51.118;6.940;2022-12-18T23:31:24;27.50;;;11.73;;
33108;SDS011;19481;51.118;6.940;2022-12-18T23:36:28;32.85;;;13.77;;
33108;SDS011;19481;51.118;6.940;2022-12-18T23:41:30;24.20;;;9.50;;
33108;SDS011;19481;51.118;6.940;2022-12-18T23:46:34;31.20;;;14.43;;
33108;SDS011;19481;51.118;6.940;2022-12-18T23:51:36;16.33;;;8.02;;
33108;SDS011;19481;51.118;6.940;2022-12-18T23:56:38;25.85;;;11.80;;
